Time;durP1;ratioP1;P1;durP2;ratioP2;P2;SDS_P1;SDS_P2;PMS_P1;PMS_P2;Temp;Humidity;BMP_temperature;BMP_pressure;BME280_temperature;BME280_humidity;BME280_pressure;Samples;Min_cycle;Max_cycle;Signal;HPM_P1;HPM_P2
2022/05/02 00:00:37;;;;;;;;;19.75;18.00;;;;;16.04;42.51;101381.97;2087462;28;47413;-60
2022/05/02 00:01:38;;;;;;;;;18.75;18.50;;;;;16.04;42.82;101379.28;2078598;28;47448;-60
2022/05/02 00:02:39;;;;;;;;;19.25;19.25;;;;;16.04;42.58;101375.75;2087308;28;47744;-61
2022/05/02 00:03:39;;;;;;;;;24.75;22.25;;;;;16.03;42.79;101379.34;2082728;28;48312;-59
2022/05/02 00:04:39;;;;;;;;;22.75;20.00;;;;;16.03;43.24;101382.03;2087910;28;47622;-61
2022/05/02 00:05:40;;;;;;;;;20.25;19.75;;;;;16.04;43.26;101375.75;2086899;28;48030;-60
2022/05/02 00:06:40;;;;;;;;;16.75;16.75;;;;;16.03;42.95;101380.22;2087886;28;47851;-61
2022/05/02 00:07:41;;;;;;;;;19.25;19.25;;;;;16.03;43.35;101372.19;2087895;28;47546;-61
2022/05/02 00:08:42;;;;;;;;;18.00;18.00;;;;;16.04;43.43;101373.06;2087351;28;47842;-62
2022/05/02 00:09:43;;;;;;;;;19.75;19.50;;;;;16.03;42.91;101372.19;2087389;28;47983;-61
2022/05/02 00:10:43;;;;;;;;;18.75;17.00;;;;;16.03;42.76;101368.63;2086235;28;47513;-61
2022/05/02 00:11:44;;;;;;;;;17.50;17.50;;;;;16.02;42.71;101362.41;2087650;28;47341;-60
2022/05/02 00:12:44;;;;;;;;;15.00;15.00;;;;;16.02;42.94;101369.56;2083282;28;48081;-61
2022/05/02 00:13:44;;;;;;;;;17.25;16.50;;;;;16.02;43.05;101364.22;2105580;27;47649;-61
2022/05/02 00:14:45;;;;;;;;;17.75;17.75;;;;;16.01;43.02;101366.00;2103879;28;47369;-61
2022/05/02 00:15:46;;;;;;;;;22.75;21.00;;;;;16.01;42.94;101357.09;2093606;28;47551;-61
2022/05/02 00:16:46;;;;;;;;;18.75;18.00;;;;;16.00;43.05;101360.69;2074527;28;47415;-61
2022/05/02 00:17:56;;;;;;;;;17.75;16.50;;;;;16.00;42.96;101364.22;2086149;28;47546;-61
2022/05/02 00:18:56;;;;;;;;;17.60;16.20;;;;;15.99;43.19;101364.28;2087836;28;47578;-59
2022/05/02 00:19:56;;;;;;;;;16.75;16.75;;;;;15.99;42.75;101354.44;2086674;28;47943;-61
2022/05/02 00:20:57;;;;;;;;;18.50;17.00;;;;;15.98;42.78;101358.06;2079269;28;46853;-61
2022/05/02 00:21:58;;;;;;;;;17.75;17.75;;;;;15.98;42.80;101363.41;2085973;28;47739;-61
2022/05/02 00:23:01;;;;;;;;;18.40;18.40;;;;;15.97;43.27;101361.66;2087699;28;47984;-61
2022/05/02 00:24:01;;;;;;;;;20.00;20.00;;;;;15.96;43.43;101361.72;2103694;28;47613;-61
2022/05/02 00:25:03;;;;;;;;;16.25;16.25;;;;;15.93;43.04;101353.81;2092628;28;47109;-61
2022/05/02 00:26:03;;;;;;;;;16.20;16.20;;;;;15.92;43.58;101352.06;2078160;28;47399;-60
2022/05/02 00:27:05;;;;;;;;;19.75;19.25;;;;;15.89;43.66;101351.22;2083815;28;47559;-60
2022/05/02 00:28:06;;;;;;;;;17.20;17.20;;;;;15.89;43.50;101358.41;2083108;28;47519;-60
2022/05/02 00:29:07;;;;;;;;;18.40;18.40;;;;;15.87;43.38;101355.75;2088108;28;47757;-61
2022/05/02 00:30:10;;;;;;;;;18.20;18.20;;;;;15.86;43.33;101355.78;2087424;28;47813;-61
2022/05/02 00:31:10;;;;;;;;;18.00;18.00;;;;;15.85;43.60;101351.38;2087612;28;47639;-60
2022/05/02 00:32:11;;;;;;;;;15.00;14.25;;;;;15.83;43.33;101356.78;2087910;28;47758;-60
2022/05/02 00:33:12;;;;;;;;;21.50;18.50;;;;;15.82;43.34;101351.47;2087997;28;47627;-60
2022/05/02 00:34:13;;;;;;;;;17.00;17.00;;;;;15.80;43.46;101350.66;2087802;28;47863;-60
2022/05/02 00:35:14;;;;;;;;;19.25;19.25;;;;;15.80;43.58;101351.53;2087947;28;48291;-60
2022/05/02 00:36:15;;;;;;;;;13.80;13.60;;;;;15.79;43.41;101351.59;2087749;28;47868;-61
2022/05/02 00:37:17;;;;;;;;;19.80;19.00;;;;;15.80;43.34;101346.19;2086727;28;47739;-60
2022/05/02 00:38:17;;;;;;;;;20.00;19.20;;;;;15.79;43.59;101346.25;2087794;28;47575;-58
2022/05/02 00:39:18;;;;;;;;;17.00;15.50;;;;;15.78;43.80;101352.53;2087803;28;47243;-61
2022/05/02 00:40:18;;;;;;;;;21.00;18.00;;;;;15.77;43.27;101343.63;2082568;28;47956;-60
2022/05/02 00:41:19;;;;;;;;;16.75;16.75;;;;;15.75;43.73;101345.47;2085854;28;47629;-61
2022/05/02 00:42:20;;;;;;;;;19.40;18.40;;;;;15.76;43.68;101346.34;2087495;28;47543;-60
2022/05/02 00:43:21;;;;;;;;;18.75;17.00;;;;;15.75;43.86;101344.56;2088506;28;47729;-60
2022/05/02 00:44:21;;;;;;;;;18.50;17.25;;;;;15.75;43.81;101340.13;2079836;28;46588;-61
2022/05/02 00:45:22;;;;;;;;;19.75;18.25;;;;;15.75;43.51;101345.47;2070124;28;47932;-59
2022/05/02 00:46:24;;;;;;;;;20.00;18.50;;;;;15.75;43.51;101341.88;2088041;28;47491;-60
2022/05/02 00:47:25;;;;;;;;;15.00;14.60;;;;;15.75;43.46;101342.78;2089009;28;47369;-60
2022/05/02 00:48:26;;;;;;;;;18.80;18.80;;;;;15.75;43.55;101342.78;2087639;28;48333;-60
2022/05/02 00:49:26;;;;;;;;;23.50;22.50;;;;;15.73;43.29;101333.91;2089289;28;47774;-60
2022/05/02 00:50:41;;;;;;;;;16.75;16.75;;;;;15.73;43.38;101344.63;2087161;28;47360;-60
2022/05/02 00:51:41;;;;;;;;;23.80;21.00;;;;;15.73;43.61;101339.28;2086431;28;47685;-60
2022/05/02 00:52:42;;;;;;;;;18.25;18.00;;;;;15.73;43.92;101338.41;2089062;28;47558;-60
2022/05/02 00:53:46;;;;;;;;;14.75;14.50;;;;;15.73;44.00;101333.91;2087841;28;47621;-60
2022/05/02 00:54:46;;;;;;;;;20.00;19.00;;;;;15.73;43.82;101328.56;2086989;28;47468;-59
2022/05/02 00:55:47;;;;;;;;;19.25;19.25;;;;;15.73;43.76;101331.25;2087551;28;47308;-61
2022/05/02 00:56:47;;;;;;;;;19.00;17.75;;;;;15.73;43.52;101327.69;2087465;28;47667;-61
2022/05/02 00:57:48;;;;;;;;;20.00;19.75;;;;;15.74;43.95;101327.63;2093910;28;47266;-61
2022/05/02 00:58:50;;;;;;;;;19.00;18.25;;;;;15.74;44.09;101335.66;2094552;28;47707;-61
2022/05/02 00:59:50;;;;;;;;;17.20;16.60;;;;;15.73;44.03;101325.88;2087026;28;47568;-61
2022/05/02 01:00:51;;;;;;;;;17.50;17.50;;;;;15.73;43.63;101327.69;2087693;28;48295;-61
2022/05/02 01:01:51;;;;;;;;;19.25;19.25;;;;;15.73;43.85;101319.66;2087436;28;47575;-61
2022/05/02 01:02:51;;;;;;;;;19.25;19.25;;;;;15.73;43.51;101322.34;2087524;28;48011;-61
2022/05/02 01:03:52;;;;;;;;;19.50;19.50;;;;;15.72;44.00;101324.13;2087443;28;47892;-60
2022/05/02 01:04:52;;;;;;;;;20.50;20.50;;;;;15.71;43.50;101322.41;2087590;28;48058;-61
2022/05/02 01:07:19;;;;;;;;;20.00;20.00;;;;;15.71;43.50;101317.03;2087284;28;47673;-60
2022/05/02 01:08:19;;;;;;;;;21.00;20.00;;;;;15.70;44.17;101319.78;2087694;28;48322;-60
2022/05/02 01:09:19;;;;;;;;;22.75;21.75;;;;;15.69;43.95;101315.34;2087432;28;47760;-59
2022/05/02 01:10:20;;;;;;;;;23.50;20.50;;;;;15.69;43.66;101315.34;2087553;28;47824;-60
2022/05/02 01:11:21;;;;;;;;;19.50;18.75;;;;;15.67;43.88;101309.19;2086531;28;47459;-60
2022/05/02 01:12:26;;;;;;;;;20.25;20.25;;;;;15.68;43.88;101318.97;2086431;28;47950;-60
2022/05/02 01:13:38;;;;;;;;;21.40;21.40;;;;;15.65;43.73;101306.56;2081083;28;48154;-60
2022/05/02 01:14:39;;;;;;;;;24.60;23.40;;;;;15.66;44.20;101307.44;2087367;28;47974;-60
2022/05/02 01:15:39;;;;;;;;;17.00;16.40;;;;;15.64;44.13;101304.81;2087418;28;48320;-61
2022/05/02 01:16:40;;;;;;;;;19.75;19.75;;;;;15.63;44.02;101304.88;2087820;28;47678;-59
2022/05/02 01:17:41;;;;;;;;;24.75;23.25;;;;;15.63;43.94;101303.06;2086979;28;47702;-60
2022/05/02 01:18:43;;;;;;;;;19.80;19.80;;;;;15.63;44.13;101299.50;2086875;28;47982;-61
2022/05/02 01:19:44;;;;;;;;;21.60;20.60;;;;;15.63;43.99;101303.06;2087864;28;47510;-61
2022/05/02 01:20:45;;;;;;;;;26.40;24.20;;;;;15.62;44.44;101305.75;2087429;28;47833;-59
2022/05/02 01:21:45;;;;;;;;;19.75;19.75;;;;;15.59;44.20;101298.69;2087778;28;48147;-61
2022/05/02 01:22:45;;;;;;;;;21.25;19.50;;;;;15.58;44.13;101300.50;2087402;28;47979;-61
2022/05/02 01:23:48;;;;;;;;;24.25;24.25;;;;;15.56;44.28;101302.34;2087562;28;47802;-60
2022/05/02 01:24:49;;;;;;;;;24.60;21.40;;;;;15.55;44.33;101292.56;2087742;28;47667;-60
2022/05/02 01:25:49;;;;;;;;;23.25;23.25;;;;;15.56;44.37;101297.00;2087423;28;47786;-60
2022/05/02 01:26:49;;;;;;;;;20.00;20.00;;;;;15.56;44.31;101299.66;2087594;28;46741;-60
2022/05/02 01:27:50;;;;;;;;;22.50;22.00;;;;;15.56;44.40;101294.31;2087063;28;47157;-61
2022/05/02 01:28:53;;;;;;;;;23.50;22.25;;;;;15.56;44.02;101299.66;2086615;28;48125;-61
2022/05/02 01:29:54;;;;;;;;;21.40;21.40;;;;;15.57;44.06;101298.75;2087010;28;47796;-61
2022/05/02 01:30:56;;;;;;;;;26.00;25.00;;;;;15.57;44.30;101298.75;2086912;28;47726;-61
2022/05/02 01:31:56;;;;;;;;;27.60;25.40;;;;;15.56;44.12;101297.00;2086879;28;47879;-61
2022/05/02 01:32:57;;;;;;;;;23.50;23.50;;;;;15.55;44.55;101303.28;2087397;28;47559;-60
2022/05/02 01:33:57;;;;;;;;;18.75;18.75;;;;;15.55;44.16;101300.59;2085653;28;47550;-60
2022/05/02 01:34:58;;;;;;;;;22.25;20.75;;;;;15.55;44.53;101300.59;2086450;28;47426;-60
2022/05/02 01:35:58;;;;;;;;;22.50;22.25;;;;;15.55;44.24;101299.72;2087934;28;45191;-60
2022/05/02 01:36:58;;;;;;;;;23.25;23.25;;;;;15.55;44.30;101297.03;2087201;28;47885;-60
2022/05/02 01:37:59;;;;;;;;;22.75;22.25;;;;;15.54;44.67;101303.31;2087843;28;47976;-61
2022/05/02 01:39:00;;;;;;;;;20.50;18.75;;;;;15.54;44.50;101306.00;2088432;28;46867;-60
2022/05/02 01:40:00;;;;;;;;;23.00;22.20;;;;;15.52;44.65;101299.84;2085786;28;47793;-60
2022/05/02 01:41:03;;;;;;;;;26.50;23.25;;;;;15.53;44.62;101304.25;2089196;28;47640;-61
2022/05/02 01:42:06;;;;;;;;;26.40;24.80;;;;;15.52;44.37;101302.50;2088280;28;47244;-59
2022/05/02 01:43:06;;;;;;;;;23.80;23.00;;;;;15.50;44.18;101301.66;2088901;28;48015;-59
2022/05/02 01:44:07;;;;;;;;;25.00;23.75;;;;;15.49;44.44;101297.22;2089307;28;47750;-60
2022/05/02 01:45:07;;;;;;;;;22.75;22.75;;;;;15.50;44.54;101301.66;2086661;28;48210;-62
2022/05/02 01:46:09;;;;;;;;;25.50;23.50;;;;;15.49;44.58;101298.09;2100679;28;48110;-61
2022/05/02 01:47:09;;;;;;;;;25.40;24.80;;;;;15.49;44.82;101306.13;2103184;28;48181;-62
2022/05/02 01:48:10;;;;;;;;;23.50;22.25;;;;;15.47;44.84;101299.97;2089100;28;47279;-61
2022/05/02 01:49:11;;;;;;;;;25.25;22.75;;;;;15.48;44.34;101300.84;2089081;28;47875;-62
2022/05/02 01:50:11;;;;;;;;;23.25;23.25;;;;;15.47;44.36;101299.97;2088789;28;47289;-61
2022/05/02 01:51:11;;;;;;;;;23.25;22.50;;;;;15.47;44.72;101309.78;2089809;28;47267;-61
2022/05/02 01:52:12;;;;;;;;;27.25;27.25;;;;;15.44;44.79;101307.22;2089743;28;47285;-61
2022/05/02 01:53:12;;;;;;;;;21.25;21.25;;;;;15.43;44.67;101305.47;2096730;28;45928;-61
2022/05/02 01:54:13;;;;;;;;;26.25;25.00;;;;;15.42;44.41;101303.72;2091362;28;47552;-59
2022/05/02 01:55:13;;;;;;;;;24.75;23.00;;;;;15.41;44.71;101304.66;2095818;28;47459;-60
2022/05/02 01:56:14;;;;;;;;;25.25;24.25;;;;;15.41;44.43;101301.97;2089826;28;47865;-59
2022/05/02 01:57:14;;;;;;;;;24.75;24.75;;;;;15.41;44.45;101304.66;2086084;28;47672;-60
2022/05/02 01:58:15;;;;;;;;;29.50;27.75;;;;;15.40;44.82;101308.25;2088822;28;47285;-61
2022/05/02 01:59:16;;;;;;;;;27.20;26.00;;;;;15.39;44.80;101303.84;2088284;28;48006;-60
2022/05/02 02:00:17;;;;;;;;;24.25;22.75;;;;;15.37;45.05;101300.31;2091628;28;47505;-60
2022/05/02 02:01:17;;;;;;;;;26.50;25.00;;;;;15.37;44.64;101300.31;2087459;28;47771;-60
2022/05/02 02:02:17;;;;;;;;;25.75;22.50;;;;;15.36;44.64;101304.78;2089264;28;47545;-61
2022/05/02 02:03:18;;;;;;;;;26.50;25.50;;;;;15.37;44.54;101305.66;2090052;28;47591;-61
2022/05/02 02:05:49;;;;;;;;;27.20;26.60;;;;;15.34;44.66;101301.28;2091505;28;48288;-60
2022/05/02 02:06:50;;;;;;;;;27.80;26.40;;;;;15.34;44.88;101300.41;2092330;28;48436;-61
2022/05/02 02:07:51;;;;;;;;;27.40;27.40;;;;;15.35;44.90;101304.84;2088507;28;47845;-61
2022/05/02 02:08:52;;;;;;;;;23.25;22.00;;;;;15.33;44.76;101294.19;2092140;28;47655;-60
2022/05/02 02:09:52;;;;;;;;;29.80;27.80;;;;;15.32;45.02;101308.47;2091036;28;48118;-60
2022/05/02 02:10:58;;;;;;;;;28.00;27.00;;;;;15.30;44.95;101305.00;2089441;28;47260;-60
2022/05/02 02:11:59;;;;;;;;;26.20;23.40;;;;;15.29;45.09;101303.25;2091622;28;47524;-60
2022/05/02 02:12:59;;;;;;;;;25.50;24.50;;;;;15.27;44.98;101299.75;2085864;28;48079;-60
2022/05/02 02:13:59;;;;;;;;;26.75;25.75;;;;;15.26;44.75;101304.22;2090007;28;46455;-60
2022/05/02 02:15:00;;;;;;;;;33.00;28.50;;;;;15.25;45.00;101301.59;2091937;28;47999;-60
2022/05/02 02:16:01;;;;;;;;;27.75;27.75;;;;;15.24;44.93;101297.16;2088852;28;47255;-60
2022/05/02 02:17:02;;;;;;;;;24.20;24.20;;;;;15.21;45.15;101303.47;2088676;28;47548;-60
2022/05/02 02:18:02;;;;;;;;;25.75;25.00;;;;;15.19;44.89;101299.09;2091976;28;47796;-60
2022/05/02 02:19:04;;;;;;;;;32.00;28.25;;;;;15.19;44.89;101309.78;2087431;28;48772;-60
2022/05/02 02:20:05;;;;;;;;;31.60;29.20;;;;;15.19;45.24;101301.78;2092156;28;46372;-61
2022/05/02 02:21:07;;;;;;;;;29.00;28.40;;;;;15.17;45.05;101293.81;2095506;28;47939;-60
2022/05/02 02:22:17;;;;;;;;;25.80;25.80;;;;;15.17;45.12;101296.47;2088677;28;47522;-60
2022/05/02 02:23:18;;;;;;;;;29.40;28.80;;;;;15.17;44.96;101299.16;2088565;28;47991;-61
2022/05/02 02:24:18;;;;;;;;;28.20;28.00;;;;;15.16;44.88;101293.84;2090568;28;45698;-58
2022/05/02 02:25:19;;;;;;;;;30.00;26.25;;;;;15.14;44.77;101299.25;2089951;28;48051;-60
2022/05/02 02:26:19;;;;;;;;;28.50;26.75;;;;;15.14;45.23;101293.03;2091622;28;47442;-60
2022/05/02 02:27:20;;;;;;;;;29.25;27.00;;;;;15.13;45.06;101294.84;2088606;28;47513;-60
2022/05/02 02:28:21;;;;;;;;;30.50;30.00;;;;;15.13;45.24;101291.28;2091308;28;47456;-60
2022/05/02 02:29:21;;;;;;;;;30.20;29.20;;;;;15.13;44.96;101288.63;2091809;28;47846;-59
2022/05/02 02:30:22;;;;;;;;;27.50;26.50;;;;;15.13;45.16;101296.63;2087778;28;47230;-60
2022/05/02 02:31:22;;;;;;;;;36.00;30.75;;;;;15.11;45.15;101291.31;2091224;28;47706;-61
2022/05/02 02:32:23;;;;;;;;;27.50;27.50;;;;;15.12;45.14;101298.44;2085399;28;47883;-61
2022/05/02 02:33:23;;;;;;;;;22.25;22.25;;;;;15.12;45.23;101292.19;2088340;28;47876;-61
2022/05/02 02:34:24;;;;;;;;;31.75;29.75;;;;;15.11;45.03;101285.97;2091278;28;48087;-61
2022/05/02 02:35:25;;;;;;;;;31.75;30.50;;;;;15.11;45.26;101290.44;2081953;28;47389;-61
2022/05/02 02:36:25;;;;;;;;;35.40;30.80;;;;;15.11;45.01;101283.28;2084182;28;47829;-61
2022/05/02 02:37:26;;;;;;;;;32.25;29.00;;;;;15.11;44.82;101282.41;2096039;28;47207;-60
2022/05/02 02:38:26;;;;;;;;;32.25;29.00;;;;;15.10;45.07;101286.00;2088430;28;47571;-60
2022/05/02 02:39:27;;;;;;;;;30.25;29.50;;;;;15.08;45.41;101277.16;2088179;28;47910;-61
2022/05/02 02:40:27;;;;;;;;;29.50;27.75;;;;;15.07;45.41;101280.78;2087627;28;47583;-60
2022/05/02 02:41:27;;;;;;;;;31.50;29.50;;;;;15.08;45.29;101286.06;2088989;28;47505;-61
2022/05/02 02:42:28;;;;;;;;;31.25;29.00;;;;;15.08;45.14;101285.19;2089852;28;47558;-61
2022/05/02 02:43:28;;;;;;;;;28.50;27.75;;;;;15.08;45.14;101286.06;2088002;28;47568;-61
2022/05/02 02:44:29;;;;;;;;;24.00;23.25;;;;;15.08;45.35;101288.75;2088648;28;47493;-61
2022/05/02 02:45:29;;;;;;;;;31.00;29.25;;;;;15.10;45.57;101283.34;2088223;28;47933;-60
2022/05/02 02:46:29;;;;;;;;;33.25;29.25;;;;;15.10;45.33;101286.00;2091525;28;47558;-61
2022/05/02 02:47:30;;;;;;;;;29.25;27.25;;;;;15.09;45.17;101286.94;2088067;28;48328;-61
2022/05/02 02:48:30;;;;;;;;;30.00;28.25;;;;;15.09;44.94;101284.25;2095204;28;47519;-60
2022/05/02 02:49:31;;;;;;;;;32.50;30.75;;;;;15.08;45.20;101279.84;2092149;28;47702;-61
2022/05/02 02:50:31;;;;;;;;;26.50;25.50;;;;;15.07;45.37;101281.66;2080511;28;47483;-61
2022/05/02 02:51:32;;;;;;;;;30.25;29.50;;;;;15.06;45.06;101282.56;2088254;28;47759;-61
2022/05/02 02:52:32;;;;;;;;;31.50;30.00;;;;;15.05;45.03;101285.28;2088352;28;47789;-61
2022/05/02 02:53:32;;;;;;;;;34.00;30.50;;;;;15.04;45.48;101281.75;2087274;28;47846;-61
2022/05/02 02:54:33;;;;;;;;;32.50;30.25;;;;;15.04;45.08;101280.88;2088207;28;47505;-61
2022/05/02 02:55:34;;;;;;;;;33.50;29.50;;;;;15.02;45.27;101278.25;2088375;28;47633;-61
2022/05/02 02:56:34;;;;;;;;;26.25;26.25;;;;;15.02;45.09;101281.81;2088544;28;47953;-61
2022/05/02 02:57:34;;;;;;;;;26.25;24.50;;;;;15.01;44.99;101280.06;2092005;28;47636;-61
2022/05/02 02:58:35;;;;;;;;;28.25;28.25;;;;;15.02;45.65;101278.25;2088395;28;47846;-61
2022/05/02 02:59:35;;;;;;;;;30.75;28.00;;;;;15.01;45.48;101280.06;2088209;28;47732;-61
2022/05/02 03:00:36;;;;;;;;;30.50;29.25;;;;;15.02;45.46;101278.25;2088161;28;46208;-61
2022/05/02 03:01:37;;;;;;;;;29.75;27.50;;;;;15.01;45.41;101272.03;2094839;28;47499;-61
2022/05/02 03:02:40;;;;;;;;;25.75;25.75;;;;;15.01;45.51;101274.72;2078492;28;48178;-61
2022/05/02 03:03:41;;;;;;;;;30.60;30.00;;;;;15.00;45.55;101275.63;2083192;27;47342;-61
2022/05/02 03:06:02;;;;;;;;;31.80;29.80;;;;;14.99;45.18;101270.31;2089395;28;47220;-61
2022/05/02 03:07:02;;;;;;;;;31.00;28.75;;;;;14.98;45.27;101274.78;2079728;28;47389;-61
2022/05/02 03:08:03;;;;;;;;;28.25;25.50;;;;;14.98;45.40;101271.22;2085477;28;47945;-61
2022/05/02 03:09:04;;;;;;;;;30.80;29.40;;;;;14.96;45.44;101265.94;2088307;28;47672;-60
2022/05/02 03:10:05;;;;;;;;;29.00;27.75;;;;;14.97;45.66;101267.69;2086363;28;47792;-61
2022/05/02 03:11:06;;;;;;;;;26.75;26.75;;;;;14.97;45.30;101265.00;2087987;28;47643;-61
2022/05/02 03:12:07;;;;;;;;;27.00;27.00;;;;;14.96;45.24;101263.25;2084800;28;47596;-61
2022/05/02 03:13:07;;;;;;;;;26.40;25.60;;;;;14.96;45.31;101270.41;2086641;28;47774;-61
2022/05/02 03:14:08;;;;;;;;;29.50;28.00;;;;;14.93;45.44;101262.50;2087947;28;47461;-61
2022/05/02 03:15:09;;;;;;;;;29.00;28.75;;;;;14.91;45.38;101259.88;2087680;28;47832;-61
2022/05/02 03:16:10;;;;;;;;;27.00;25.80;;;;;14.91;45.75;101259.88;2088042;28;47657;-62
2022/05/02 03:17:11;;;;;;;;;25.40;25.40;;;;;14.91;45.67;101265.22;2088530;28;45783;-62
2022/05/02 03:18:11;;;;;;;;;26.75;26.00;;;;;14.89;45.72;101260.84;2088057;28;47501;-61
2022/05/02 03:19:12;;;;;;;;;26.50;26.50;;;;;14.88;45.57;101265.31;2088443;28;48018;-60
2022/05/02 03:20:12;;;;;;;;;27.25;26.75;;;;;14.88;45.43;101253.75;2087907;28;47555;-59
2022/05/02 03:21:13;;;;;;;;;26.50;24.75;;;;;14.87;45.49;101255.56;2088065;28;47740;-60
2022/05/02 03:22:13;;;;;;;;;30.75;27.25;;;;;14.85;45.29;101253.81;2088126;28;47546;-61
2022/05/02 03:23:14;;;;;;;;;28.00;26.25;;;;;14.86;45.48;101260.91;2092228;28;47705;-60
2022/05/02 03:24:14;;;;;;;;;32.00;29.00;;;;;14.85;45.80;101252.03;2103880;28;47586;-60
2022/05/02 03:25:15;;;;;;;;;28.00;26.50;;;;;14.86;45.86;101256.44;2104400;28;47656;-60
2022/05/02 03:26:15;;;;;;;;;27.25;25.00;;;;;14.85;45.66;101252.03;2087542;28;47139;-60
2022/05/02 03:27:16;;;;;;;;;27.75;27.50;;;;;14.85;45.77;101254.69;2080080;28;47660;-60
2022/05/02 03:28:17;;;;;;;;;32.75;29.00;;;;;14.87;45.86;101260.03;2086665;28;47678;-60
2022/05/02 03:29:17;;;;;;;;;30.00;28.40;;;;;14.86;45.70;101253.78;2088311;28;46798;-61
2022/05/02 03:30:18;;;;;;;;;30.00;28.50;;;;;14.85;45.98;101260.03;2087612;28;47948;-60
2022/05/02 03:31:18;;;;;;;;;29.25;28.25;;;;;14.84;45.54;101255.63;2087941;28;47622;-60
2022/05/02 03:32:19;;;;;;;;;30.75;29.00;;;;;14.82;45.59;101254.81;2088299;28;47803;-60
2022/05/02 03:33:19;;;;;;;;;29.00;27.50;;;;;14.80;45.88;101255.78;2089086;28;47681;-60
2022/05/02 03:34:20;;;;;;;;;31.00;30.00;;;;;14.80;45.90;101253.97;2088060;28;47859;-60
2022/05/02 03:35:20;;;;;;;;;27.00;25.50;;;;;14.80;45.80;101253.09;2095022;28;47494;-61
2022/05/02 03:36:20;;;;;;;;;29.50;29.25;;;;;14.80;45.59;101259.31;2095081;28;47585;-59
2022/05/02 03:37:22;;;;;;;;;26.50;25.25;;;;;14.79;45.78;101246.88;2095526;28;46758;-61
2022/05/02 03:38:22;;;;;;;;;30.40;28.00;;;;;14.79;45.66;101256.69;2086835;28;47827;-60
2022/05/02 03:39:23;;;;;;;;;26.75;25.50;;;;;14.77;45.68;101254.09;2086782;28;47450;-60
2022/05/02 03:40:24;;;;;;;;;27.25;27.25;;;;;14.75;46.01;101253.25;2070131;28;47804;-59
2022/05/02 03:41:24;;;;;;;;;31.00;30.00;;;;;14.75;45.88;101249.72;2070040;28;47973;-59
2022/05/02 03:42:24;;;;;;;;;32.75;30.25;;;;;14.73;45.72;101252.41;2096578;28;47857;-60
2022/05/02 03:43:25;;;;;;;;;32.00;29.50;;;;;14.72;46.14;101253.31;2093356;28;47614;-60
2022/05/02 03:44:25;;;;;;;;;31.75;30.00;;;;;14.71;45.81;101252.44;2091717;28;48168;-60
2022/05/02 03:45:26;;;;;;;;;27.50;27.50;;;;;14.70;45.88;101252.50;2094814;28;47568;-61
2022/05/02 03:46:27;;;;;;;;;28.60;27.00;;;;;14.69;46.15;101250.75;2086934;28;48122;-61
2022/05/02 03:47:28;;;;;;;;;27.75;27.50;;;;;14.69;46.26;101250.75;2086480;28;47646;-59
2022/05/02 03:48:28;;;;;;;;;28.75;25.75;;;;;14.68;46.05;101249.00;2095337;28;47491;-59
2022/05/02 03:49:29;;;;;;;;;29.00;28.50;;;;;14.70;46.37;101244.47;2095077;28;47520;-59
2022/05/02 03:50:29;;;;;;;;;28.25;27.50;;;;;14.71;46.35;101251.56;2095126;28;47395;-60
2022/05/02 03:51:30;;;;;;;;;26.75;25.50;;;;;14.72;46.32;101251.53;2095128;28;47861;-59
2022/05/02 03:52:30;;;;;;;;;30.75;26.25;;;;;14.74;46.22;101254.19;2095356;28;47997;-59
2022/05/02 03:53:31;;;;;;;;;25.00;25.00;;;;;14.75;46.14;101249.72;2095254;28;47615;-58
2022/05/02 03:54:31;;;;;;;;;31.00;29.25;;;;;14.75;46.36;101249.72;2078380;28;47536;-58
2022/05/02 03:55:31;;;;;;;;;30.25;29.50;;;;;14.77;46.15;101253.22;2078265;28;48151;-59
2022/05/02 03:56:32;;;;;;;;;24.25;24.25;;;;;14.78;46.00;101249.59;2094899;28;47709;-58
2022/05/02 03:57:32;;;;;;;;;21.75;21.00;;;;;14.78;46.03;101250.47;2095370;28;47680;-57
2022/05/02 03:58:33;;;;;;;;;27.75;25.75;;;;;14.79;46.15;101254.91;2095157;28;47446;-58
2022/05/02 03:59:33;;;;;;;;;28.25;27.50;;;;;14.81;46.21;101255.72;2088258;28;47878;-58
2022/05/02 04:00:34;;;;;;;;;28.50;26.75;;;;;14.81;45.93;101252.19;2086402;28;47609;-58
2022/05/02 04:01:39;;;;;;;;;27.75;27.75;;;;;14.82;45.87;101245.91;2087325;28;45659;-58
2022/05/02 04:02:40;;;;;;;;;25.60;25.60;;;;;14.82;46.32;101246.78;2095221;28;47723;-59
2022/05/02 04:03:40;;;;;;;;;31.00;27.00;;;;;14.82;45.89;101249.47;2083441;28;47534;-59
2022/05/02 04:04:41;;;;;;;;;26.25;26.25;;;;;14.83;46.12;101247.66;2078660;28;47789;-58
2022/05/02 04:05:41;;;;;;;;;27.00;25.00;;;;;14.83;46.03;101244.97;2086742;28;47667;-59
2022/05/02 04:06:42;;;;;;;;;33.75;31.25;;;;;14.84;45.87;101244.06;2086532;28;47760;-58
2022/05/02 04:07:42;;;;;;;;;26.50;26.50;;;;;14.84;46.21;101241.38;2087072;28;47532;-58
2022/05/02 04:08:43;;;;;;;;;21.50;19.50;;;;;14.83;45.97;101244.97;2086809;28;48194;-58
2022/05/02 04:09:43;;;;;;;;;28.25;28.00;;;;;14.82;45.90;101243.25;2086835;28;48346;-59
2022/05/02 04:10:43;;;;;;;;;29.25;26.25;;;;;14.84;46.23;101249.41;2086716;28;47684;-59
2022/05/02 04:11:45;;;;;;;;;26.25;25.00;;;;;14.85;46.16;101248.47;2093277;28;47250;-57
2022/05/02 04:12:46;;;;;;;;;29.40;28.60;;;;;14.85;45.95;101241.34;2099596;28;47528;-60
2022/05/02 04:13:46;;;;;;;;;29.20;28.80;;;;;14.87;46.00;101241.31;2089552;28;47789;-57
2022/05/02 04:14:47;;;;;;;;;30.25;27.00;;;;;14.86;45.97;101239.53;2087384;28;47281;-58
2022/05/02 04:15:49;;;;;;;;;28.00;25.00;;;;;14.87;46.14;101244.88;2094920;28;47752;-58
2022/05/02 04:16:50;;;;;;;;;27.80;26.00;;;;;14.87;46.10;101244.88;2094199;28;47980;-58
2022/05/02 04:17:50;;;;;;;;;28.00;23.00;;;;;14.89;46.12;101239.47;2087632;28;48135;-57
2022/05/02 04:18:51;;;;;;;;;27.25;25.25;;;;;14.89;46.15;101245.69;2079394;28;47400;-58
2022/05/02 04:19:51;;;;;;;;;25.75;25.75;;;;;14.90;46.22;101238.53;2087309;28;46421;-58
2022/05/02 04:20:51;;;;;;;;;30.50;27.00;;;;;14.91;46.18;101240.28;2078880;28;47053;-58
2022/05/02 04:21:52;;;;;;;;;29.00;25.75;;;;;14.91;45.88;101249.19;2087005;28;48116;-58
2022/05/02 04:22:52;;;;;;;;;24.75;23.50;;;;;14.92;46.13;101244.72;2081525;28;47828;-57
2022/05/02 04:23:53;;;;;;;;;27.00;25.00;;;;;14.93;46.09;101246.47;2086614;28;47417;-57
2022/05/02 04:24:53;;;;;;;;;25.00;24.25;;;;;14.95;46.15;101252.63;2088110;28;47949;-60
2022/05/02 04:25:53;;;;;;;;;31.25;28.50;;;;;14.94;46.20;101253.56;2087800;28;47901;-59
2022/05/02 04:26:56;;;;;;;;;29.75;27.00;;;;;14.93;45.79;101241.13;2087516;28;47809;-59
2022/05/02 04:27:57;;;;;;;;;30.40;27.60;;;;;14.94;45.72;101249.06;2087771;28;47528;-59
2022/05/02 04:28:57;;;;;;;;;28.00;28.00;;;;;14.95;46.28;101250.81;2070096;28;46392;-58
2022/05/02 04:29:57;;;;;;;;;30.00;30.00;;;;;14.95;45.70;101244.59;2070222;28;47376;-59
2022/05/02 04:30:58;;;;;;;;;30.75;28.75;;;;;14.95;45.83;101250.81;2070489;28;47523;-59
2022/05/02 04:31:58;;;;;;;;;31.25;28.75;;;;;14.93;45.68;101246.47;2070123;28;47758;-59
2022/05/02 04:32:59;;;;;;;;;31.25;28.25;;;;;14.93;45.81;101247.34;2070540;28;47650;-59
2022/05/02 04:33:59;;;;;;;;;32.50;30.25;;;;;14.94;46.07;101242.84;2070490;28;45787;-59
2022/05/02 04:34:59;;;;;;;;;29.25;29.00;;;;;14.94;46.25;101249.06;2069290;28;47676;-59
2022/05/02 04:36:00;;;;;;;;;25.25;25.25;;;;;14.95;46.23;101241.94;2067139;28;48099;-59
2022/05/02 04:37:00;;;;;;;;;30.75;29.00;;;;;14.93;45.86;101241.13;2070087;28;47415;-59
2022/05/02 04:38:01;;;;;;;;;28.50;28.00;;;;;14.95;46.01;101244.59;2070111;28;47702;-58
2022/05/02 04:39:02;;;;;;;;;29.00;28.50;;;;;14.93;45.92;101236.63;2070024;28;47199;-58
2022/05/02 04:40:03;;;;;;;;;27.75;27.00;;;;;14.93;46.04;101246.47;2062004;28;47628;-55
2022/05/02 04:41:04;;;;;;;;;29.80;28.60;;;;;14.93;45.76;101246.47;2070004;28;47893;-59